Terminal Aerodrome Forecast
Issued by NWS Lake Charles, LA

Current Version | Previous Version | Text Only | Print | Product List | Glossary On
Versions: 1 2 3 4 5 6 7 8 9 10 11 12 13
000
FTUS44 KLCH 022320
TAFAEX
TAF
KAEX 022320Z 0300/0324 13005KT P6SM VCSH SCT035 BKN120
      TEMPO 0300/0301 4SM SHRA BKN025 OVC120
     FM030100 00000KT P6SM SCT050 BKN120
      TEMPO 0309/0313 4SM BR
     FM031500 11005KT P6SM VCSH SCT040=

USA.gov is the U.S. government's official web portal to all federal, state and local government web resources and services.